Time;durP1;ratioP1;P1;durP2;ratioP2;P2;SDS_P1;SDS_P2;PMS_P1;PMS_P2;Temp;Humidity;BMP_temperature;BMP_pressure;BME280_temperature;BME280_humidity;BME280_pressure;Samples;Min_cycle;Max_cycle;Signal;HPM_P1;HPM_P2
2022/04/17 00:01:31;;;;;;;11.98;9.63;;;;;;;5.23;100.00;161933.91;5010096;28;20057;-57
2022/04/17 00:03:56;;;;;;;11.13;7.90;;;;;;;5.16;100.00;161915.06;5012318;28;20485;-57
2022/04/17 00:06:22;;;;;;;10.60;8.90;;;;;;;5.08;100.00;161894.88;5010472;28;20378;-57
2022/04/17 00:08:48;;;;;;;11.25;9.13;;;;;;;4.99;100.00;161872.03;5011728;28;20088;-57
2022/04/17 00:11:14;;;;;;;11.07;9.10;;;;;;;4.92;100.00;161853.19;5010703;28;20392;-57
2022/04/17 00:13:39;;;;;;;12.70;6.95;;;;;;;4.93;100.00;161857.22;5011759;28;20025;-57
2022/04/17 00:16:05;;;;;;;9.63;8.02;;;;;;;4.92;100.00;161853.19;5010249;28;20509;-57
2022/04/17 00:18:30;;;;;;;10.52;7.72;;;;;;;4.90;100.00;161849.19;5011685;28;20105;-57
2022/04/17 00:20:55;;;;;;;8.45;6.72;;;;;;;4.91;100.00;161850.50;5010388;28;20049;-57
2022/04/17 00:23:21;;;;;;;8.63;7.53;;;;;;;4.89;100.00;161845.09;5011019;28;20021;-57
2022/04/17 00:25:47;;;;;;;9.57;7.15;;;;;;;4.91;100.00;161850.50;5010602;28;20033;-57
2022/04/17 00:28:12;;;;;;;11.48;7.85;;;;;;;4.90;100.00;161849.19;5011877;28;20026;-57
2022/04/17 00:30:38;;;;;;;10.40;7.47;;;;;;;4.86;100.00;161837.06;5009584;28;20075;-58
2022/04/17 00:33:03;;;;;;;12.73;8.98;;;;;;;4.91;100.00;161850.50;5011140;28;20098;-57
2022/04/17 00:35:29;;;;;;;10.30;7.40;;;;;;;4.90;100.00;161847.81;5011558;28;20096;-57
2022/04/17 00:37:54;;;;;;;9.23;6.78;;;;;;;4.88;100.00;161842.41;5010229;28;20497;-57
2022/04/17 00:40:20;;;;;;;10.43;6.55;;;;;;;4.90;100.00;161847.81;5010971;28;20782;-57
2022/04/17 00:42:46;;;;;;;11.95;7.20;;;;;;;4.90;100.00;161847.81;5010223;28;20045;-57
2022/04/17 00:45:11;;;;;;;13.38;7.75;;;;;;;4.87;100.00;161839.78;5011257;28;20053;-57
2022/04/17 00:47:36;;;;;;;12.73;7.53;;;;;;;4.90;100.00;161847.81;5009403;28;20050;-57
2022/04/17 00:50:02;;;;;;;9.50;6.88;;;;;;;4.91;100.00;161850.50;5011847;28;20484;-57
2022/04/17 00:52:28;;;;;;;12.05;7.28;;;;;;;4.87;100.00;161841.09;5009831;28;20034;-57
2022/04/17 00:54:55;;;;;;;10.63;7.07;;;;;;;4.83;100.00;161828.97;5011004;28;20377;-57
2022/04/17 00:57:20;;;;;;;9.95;6.82;;;;;;;4.78;100.00;161815.56;5009232;28;20485;-56
2022/04/17 00:59:47;;;;;;;17.95;9.82;;;;;;;4.68;100.00;161791.34;5011073;28;20034;-56
2022/04/17 01:02:16;;;;;;;8.30;6.90;;;;;;;4.52;100.00;161748.31;5009612;28;20038;-56
2022/04/17 01:04:42;;;;;;;7.32;6.63;;;;;;;4.35;100.00;161705.31;5011102;28;20030;-56
2022/04/17 01:07:09;;;;;;;10.25;7.05;;;;;;;4.20;100.00;161665.00;5010024;28;20041;-56
2022/04/17 01:09:35;;;;;;;7.63;6.45;;;;;;;4.07;100.00;161632.69;5011067;28;20149;-56
2022/04/17 01:12:01;;;;;;;16.73;7.55;;;;;;;4.00;100.00;161612.56;5009695;28;20125;-57
2022/04/17 01:14:29;;;;;;;8.05;6.85;;;;;;;3.91;100.00;161589.75;5011183;28;20026;-56
2022/04/17 01:16:55;;;;;;;;;;;;;;;3.79;100.00;161560.16;5010155;28;20108;-57
2022/04/17 01:19:23;;;;;;;15.15;9.55;;;;;;;3.68;100.00;161530.59;5011008;28;19913;-56
2022/04/17 01:21:49;;;;;;;10.20;7.27;;;;;;;3.55;100.00;161497.00;5009888;28;20620;-56
2022/04/17 01:27:02;;;;;;;8.23;7.35;;;;;;;3.35;100.00;161444.59;5009537;28;20413;-56
2022/04/17 01:29:35;;;;;;;12.70;7.80;;;;;;;3.28;100.00;161425.81;5010955;28;20026;-56
2022/04/17 01:32:02;;;;;;;8.30;7.35;;;;;;;3.24;100.00;161415.09;5009251;28;20050;-57
2022/04/17 01:34:28;;;;;;;9.45;8.05;;;;;;;3.20;100.00;161404.31;5010778;28;20049;-55
2022/04/17 01:36:54;;;;;;;12.10;9.38;;;;;;;3.14;100.00;161390.88;5009806;28;20496;-57
2022/04/17 01:39:20;;;;;;;7.47;6.78;;;;;;;3.07;100.00;161372.09;5010077;28;20038;-57
2022/04/17 01:41:47;;;;;;;14.90;7.25;;;;;;;3.06;100.00;161369.41;5009836;28;20520;-57
2022/04/17 01:44:13;;;;;;;10.52;8.23;;;;;;;3.00;100.00;161353.28;5011074;28;20100;-57
2022/04/17 01:46:38;;;;;;;8.98;7.30;;;;;;;2.88;100.00;161322.41;5012441;28;20073;-56
2022/04/17 01:49:04;;;;;;;9.02;6.05;;;;;;;2.90;100.00;161326.41;5014576;28;20485;-57
2022/04/17 01:51:34;;;;;;;11.10;7.72;;;;;;;2.82;100.00;161306.28;5014748;28;20030;-57
2022/04/17 01:54:02;;;;;;;9.63;7.53;;;;;;;2.74;100.00;161286.13;5010738;28;20129;-57
2022/04/17 01:56:27;;;;;;;10.38;7.90;;;;;;;2.65;100.00;161261.94;5014238;28;20512;-57
2022/04/17 01:58:52;;;;;;;8.15;7.30;;;;;;;2.52;100.00;161229.75;5013049;28;20056;-57
2022/04/17 02:01:18;;;;;;;11.75;6.68;;;;;;;2.48;100.00;161219.03;5013237;28;20038;-57
2022/04/17 02:03:43;;;;;;;14.80;7.68;;;;;;;2.47;100.00;161216.31;5012980;28;20045;-57
2022/04/17 02:06:08;;;;;;;9.90;7.55;;;;;;;2.46;100.00;161213.63;5014188;28;20026;-57
2022/04/17 02:08:34;;;;;;;10.23;7.35;;;;;;;2.40;100.00;161197.53;5012454;28;20042;-57
2022/04/17 02:10:59;;;;;;;12.68;8.68;;;;;;;2.34;100.00;161182.75;5014635;28;20485;-57
2022/04/17 02:13:24;;;;;;;10.55;8.15;;;;;;;2.29;100.00;161167.97;5012597;28;20386;-57
2022/04/17 02:15:53;;;;;;;7.90;7.07;;;;;;;2.29;100.00;161167.97;5013510;28;20031;-57
2022/04/17 02:18:21;;;;;;;13.38;8.68;;;;;;;2.26;100.00;161159.94;5012035;28;20045;-57
2022/04/17 02:20:47;;;;;;;9.82;7.82;;;;;;;2.25;100.00;161157.25;5014405;28;20057;-58
2022/04/17 02:23:13;;;;;;;9.50;8.65;;;;;;;2.25;100.00;161157.25;5012437;28;20104;-57
2022/04/17 02:25:38;;;;;;;9.55;7.38;;;;;;;2.28;100.00;161165.28;5013970;28;20424;-57
2022/04/17 02:28:04;;;;;;;9.93;8.43;;;;;;;2.27;100.00;161162.66;5012485;28;20059;-57
2022/04/17 02:30:29;;;;;;;10.77;9.55;;;;;;;2.25;100.00;161157.25;5012974;28;20034;-57
2022/04/17 02:32:54;;;;;;;7.70;6.97;;;;;;;2.24;100.00;161154.56;5012037;28;20041;-57
2022/04/17 02:35:20;;;;;;;9.15;8.10;;;;;;;2.16;100.00;161135.78;5013611;28;20033;-57
2022/04/17 02:37:45;;;;;;;9.18;7.40;;;;;;;2.09;100.00;161115.63;5012070;28;20527;-57
2022/04/17 02:40:11;;;;;;;10.30;9.23;;;;;;;2.00;100.00;161094.19;5013836;28;20457;-57
2022/04/17 02:42:36;;;;;;;7.97;7.15;;;;;;;1.83;100.00;161049.88;5011846;28;20092;-57
2022/04/17 02:45:01;;;;;;;11.48;8.23;;;;;;;1.69;100.00;161012.31;5013141;28;20094;-57
2022/04/17 02:47:45;;;;;;;11.63;8.30;;;;;;;1.56;100.00;160980.13;5012060;28;20430;-57
2022/04/17 02:50:12;;;;;;;12.18;8.77;;;;;;;1.37;100.00;160930.47;5014064;28;20022;-57
2022/04/17 02:52:38;;;;;;;9.57;8.10;;;;;;;1.21;100.00;160887.53;5011387;28;20030;-57
2022/04/17 02:55:05;;;;;;;10.48;8.50;;;;;;;1.06;100.00;160848.69;5013373;28;20560;-57
2022/04/17 02:57:30;;;;;;;11.18;9.35;;;;;;;1.01;100.00;160835.22;5011154;28;20088;-57
2022/04/17 02:59:56;;;;;;;11.05;9.27;;;;;;;0.91;100.00;160811.13;5012915;28;20493;-57
2022/04/17 03:07:49;;;;;;;10.13;8.90;;;;;;;0.79;100.00;160778.91;5005390;28;20064;-57
2022/04/17 03:10:15;;;;;;;9.73;8.43;;;;;;;0.77;100.00;160773.59;5013581;28;20473;-57
2022/04/17 03:12:40;;;;;;;17.48;9.52;;;;;;;0.72;100.00;160760.13;5011666;28;20173;-57
2022/04/17 03:15:07;;;;;;;12.57;10.38;;;;;;;0.83;100.00;160788.28;5012493;28;20076;-57
2022/04/17 03:17:32;;;;;;;11.73;10.20;;;;;;;0.80;100.00;160781.59;5011261;28;20037;-57
2022/04/17 03:19:58;;;;;;;12.30;9.38;;;;;;;0.76;100.00;160772.22;5013230;28;20021;-58
2022/04/17 03:22:25;;;;;;;16.17;9.43;;;;;;;0.66;100.00;160744.06;5011251;28;20486;-57
2022/04/17 03:24:51;;;;;;;12.13;10.85;;;;;;;0.63;100.00;160738.69;5013011;28;20533;-57
2022/04/17 03:27:16;;;;;;;11.05;8.80;;;;;;;0.54;100.00;160714.59;5016974;28;20048;-57
2022/04/17 03:29:41;;;;;;;12.20;10.00;;;;;;;0.46;100.00;160693.13;5032174;28;20025;-57
2022/04/17 03:32:07;;;;;;;15.18;8.02;;;;;;;0.39;100.00;160674.38;5031114;28;20636;-57
2022/04/17 03:34:32;;;;;;;15.38;10.27;;;;;;;0.39;100.00;160674.38;5032026;28;20102;-57
2022/04/17 03:36:58;;;;;;;10.15;8.32;;;;;;;0.39;100.00;160674.38;5030841;28;20045;-57
2022/04/17 03:39:26;;;;;;;9.40;8.50;;;;;;;0.30;100.00;160652.91;5032359;28;20025;-57
2022/04/17 03:41:53;;;;;;;10.35;8.70;;;;;;;0.19;100.00;160623.41;5030782;28;20044;-57
2022/04/17 03:44:19;;;;;;;9.88;8.98;;;;;;;0.20;100.00;160626.09;5031744;28;20033;-57
2022/04/17 03:46:45;;;;;;;11.23;9.10;;;;;;;0.12;100.00;160606.00;5031187;28;20021;-57
2022/04/17 03:49:11;;;;;;;12.93;9.45;;;;;;;0.10;100.00;160600.63;5032607;28;20392;-59
2022/04/17 03:51:36;;;;;;;12.95;9.35;;;;;;;0.05;100.00;160585.88;5030347;28;20115;-57
2022/04/17 03:54:02;;;;;;;16.70;12.32;;;;;;;-0.03;100.00;160565.81;5032007;28;20026;-57
2022/04/17 03:56:27;;;;;;;19.52;10.68;;;;;;;-0.10;100.00;160548.38;5029975;28;20125;-56
2022/04/17 03:58:53;;;;;;;10.55;9.45;;;;;;;-0.13;100.00;160539.00;5031505;28;20029;-56
2022/04/17 04:01:18;;;;;;;12.40;9.27;;;;;;;-0.19;100.00;160524.28;5030967;28;20060;-55
2022/04/17 04:03:43;;;;;;;15.48;10.63;;;;;;;-0.30;100.00;160494.78;5030064;28;20034;-59
2022/04/17 04:06:10;;;;;;;13.57;10.20;;;;;;;-0.38;100.00;160476.03;5031099;28;20032;-58
2022/04/17 04:08:35;;;;;;;13.38;11.27;;;;;;;-0.40;100.00;160470.66;5029523;28;20107;-58
2022/04/17 04:11:00;;;;;;;13.48;11.05;;;;;;;-0.41;100.00;160467.97;5031612;28;20473;-57
2022/04/17 04:13:26;;;;;;;13.80;11.55;;;;;;;-0.37;100.00;160478.72;5029752;28;20056;-57
2022/04/17 04:15:51;;;;;;;16.92;12.35;;;;;;;-0.40;100.00;160470.66;5031639;28;20026;-57
2022/04/17 04:18:16;;;;;;;12.43;9.38;;;;;;;-0.42;100.00;160465.34;5029955;28;20037;-57
2022/04/17 04:20:42;;;;;;;14.90;10.30;;;;;;;-0.47;100.00;160451.91;5031326;28;20041;-57
2022/04/17 04:23:08;;;;;;;11.77;10.55;;;;;;;-0.53;100.00;160437.22;5030475;28;20033;-57
2022/04/17 04:25:34;;;;;;;15.63;12.65;;;;;;;-0.52;100.00;160438.53;5031091;28;20037;-53
2022/04/17 04:30:43;;;;;;;12.27;10.75;;;;;;;-0.55;100.00;160430.47;5031519;28;20040;-55
2022/04/17 04:33:09;;;;;;;15.02;11.60;;;;;;;-0.54;100.00;160433.16;5030101;28;20041;-52
2022/04/17 04:35:34;;;;;;;14.45;10.80;;;;;;;-0.53;100.00;160435.84;5030878;28;20053;-52
2022/04/17 04:38:01;;;;;;;12.88;11.30;;;;;;;-0.49;100.00;160446.56;5029925;28;20064;-53
2022/04/17 04:40:29;;;;;;;14.93;12.93;;;;;;;-0.45;100.00;160455.97;5030906;28;20041;-54
2022/04/17 04:43:01;;;;;;;14.25;10.25;;;;;;;-0.39;100.00;160472.03;5021253;28;20038;-54
2022/04/17 04:48:11;;;;;;;14.98;12.48;;;;;;;-0.49;100.00;160446.56;5017871;28;20075;-52
2022/04/17 04:50:37;;;;;;;15.38;12.07;;;;;;;-0.52;100.00;160439.84;5022099;28;20409;-54
2022/04/17 04:53:03;;;;;;;13.85;10.75;;;;;;;-0.49;100.00;160446.56;5018339;28;20038;-54
2022/04/17 04:55:28;;;;;;;18.35;12.35;;;;;;;-0.46;100.00;160454.59;5025398;28;20033;-53
2022/04/17 04:57:54;;;;;;;13.25;11.57;;;;;;;-0.42;100.00;160465.34;5025473;28;20066;-53
2022/04/17 05:00:19;;;;;;;17.20;13.00;;;;;;;-0.35;100.00;160484.09;5022971;28;20111;-53
2022/04/17 05:02:44;;;;;;;13.18;11.30;;;;;;;-0.29;100.00;160498.78;5021898;28;20033;-53
2022/04/17 05:05:10;;;;;;;12.18;10.82;;;;;;;-0.23;100.00;160514.91;5023927;28;20497;-53
2022/04/17 05:07:37;;;;;;;12.82;11.52;;;;;;;-0.16;100.00;160532.28;5024556;28;20033;-54
2022/04/17 05:10:03;;;;;;;15.27;12.98;;;;;;;-0.12;100.00;160541.69;5018719;28;20037;-54
2022/04/17 05:12:29;;;;;;;15.23;12.27;;;;;;;-0.07;100.00;160556.44;5021582;28;20038;-54
2022/04/17 05:14:54;;;;;;;15.40;11.77;;;;;;;0.01;100.00;160575.19;5024058;28;20068;-54
2022/04/17 05:17:19;;;;;;;18.40;12.35;;;;;;;0.08;100.00;160593.94;5018945;28;20049;-54
2022/04/17 05:19:45;;;;;;;15.75;12.95;;;;;;;0.11;100.00;160602.00;5023120;28;20018;-55
2022/04/17 05:22:15;;;;;;;14.82;12.65;;;;;;;0.17;100.00;160618.09;5022516;28;20516;-54
2022/04/17 05:24:42;;;;;;;15.00;12.05;;;;;;;0.26;100.00;160642.16;5022652;28;20040;-54
2022/04/17 05:27:07;;;;;;;13.88;11.60;;;;;;;0.45;100.00;160690.44;5024161;28;20107;-55
2022/04/17 05:29:33;;;;;;;14.48;11.45;;;;;;;0.59;100.00;160726.66;5027223;28;20025;-53
2022/04/17 05:31:59;;;;;;;15.68;11.95;;;;;;;0.75;100.00;160768.22;5026996;28;20496;-53
2022/04/17 05:34:24;;;;;;;16.15;12.52;;;;;;;0.87;100.00;160800.38;5026147;28;20033;-55
2022/04/17 05:36:50;;;;;;;13.15;11.93;;;;;;;1.04;100.00;160843.28;5021639;28;20042;-53
2022/04/17 05:39:15;;;;;;;12.65;10.98;;;;;;;1.19;100.00;160882.22;5025755;28;20022;-54
2022/04/17 05:41:41;;;;;;;16.17;12.68;;;;;;;1.31;100.00;160913.03;5025222;28;20100;-54
2022/04/17 05:44:08;;;;;;;13.75;10.57;;;;;;;1.46;100.00;160951.94;5027241;28;20548;-54
2022/04/17 05:46:36;;;;;;;14.88;12.20;;;;;;;1.69;100.00;161013.66;5024586;28;20041;-54
2022/04/17 05:49:05;;;;;;;10.80;9.73;;;;;;;1.88;100.00;161061.94;5026438;28;20091;-53
2022/04/17 05:51:35;;;;;;;16.92;10.60;;;;;;;2.12;100.00;161125.06;5025258;28;20128;-53
2022/04/17 05:54:05;;;;;;;14.98;11.18;;;;;;;2.42;100.00;161202.88;5026020;28;20065;-53
2022/04/17 05:56:31;;;;;;;11.40;10.20;;;;;;;2.68;100.00;161270.03;5024685;28;20049;-53
2022/04/17 05:58:56;;;;;;;16.00;9.32;;;;;;;2.95;100.00;161341.19;5024682;28;20029;-53
2022/04/17 06:01:21;;;;;;;10.80;8.63;;;;;;;3.20;100.00;161404.31;5030755;28;20038;-53
2022/04/17 06:03:47;;;;;;;17.00;12.25;;;;;;;3.40;100.00;161458.03;5032829;28;20021;-54
2022/04/17 06:06:12;;;;;;;12.50;9.55;;;;;;;3.59;100.00;161507.72;5032175;28;20408;-54
2022/04/17 06:08:38;;;;;;;14.30;9.68;;;;;;;3.83;100.00;161568.22;5033578;28;20029;-54
2022/04/17 06:11:03;;;;;;;10.57;8.73;;;;;;;4.05;100.00;161626.00;5030710;28;20075;-53
2022/04/17 06:13:28;;;;;;;12.35;10.18;;;;;;;4.25;100.00;161678.41;5032483;28;20076;-54
2022/04/17 06:15:54;;;;;;;20.73;12.23;;;;;;;4.41;100.00;161721.44;5032202;28;20029;-54
2022/04/17 06:18:19;;;;;;;10.75;9.75;;;;;;;4.57;100.00;161761.78;5032389;28;20025;-54
2022/04/17 06:20:44;;;;;;;12.65;8.07;;;;;;;4.76;100.00;161812.84;5031302;28;20040;-54
2022/04/17 06:23:10;;;;;;;12.48;9.45;;;;;;;4.90;100.00;161847.81;5032723;28;20468;-54
2022/04/17 06:25:35;;;;;;;10.45;8.25;;;;;;;5.07;100.00;161893.53;5032014;28;20785;-54
2022/04/17 06:28:01;;;;;;;10.15;8.75;;;;;;;5.14;100.00;161909.69;5029860;28;20111;-54
2022/04/17 06:30:26;;;;;;;9.80;8.75;;;;;;;5.34;100.00;161963.47;5031981;28;20096;-52
2022/04/17 06:32:52;;;;;;;12.55;8.95;;;;;;;5.56;100.00;162019.97;5030251;28;20148;-52
2022/04/17 06:35:18;;;;;;;10.70;9.80;;;;;;;5.70;100.00;162057.63;5032501;28;20026;-51
2022/04/17 06:37:52;;;;;;;10.18;8.05;;;;;;;5.89;100.00;162106.09;5031162;28;20129;-55
2022/04/17 06:40:21;;;;;;;14.10;11.95;;;;;;;6.07;100.00;162151.94;5016375;28;20025;-54
2022/04/17 06:42:48;;;;;;;19.70;8.88;;;;;;;6.21;100.00;162189.59;5029952;28;20041;-51
2022/04/17 06:45:14;;;;;;;12.05;10.75;;;;;;;6.33;100.00;162220.53;5031840;28;20025;-53
2022/04/17 06:47:39;;;;;;;12.38;9.82;;;;;;;6.50;100.00;162266.31;5030002;28;20045;-54
2022/04/17 06:50:05;;;;;;;9.52;7.43;;;;;;;6.71;100.00;162318.81;5032504;28;20473;-54
2022/04/17 06:52:31;;;;;;;13.82;8.80;;;;;;;6.90;100.00;162369.97;5030988;28;20065;-53
2022/04/17 06:54:56;;;;;;;10.48;8.05;;;;;;;7.07;100.00;162414.44;5031310;28;20026;-54
2022/04/17 06:57:32;;;;;;;9.25;7.55;;;;;;;7.28;100.00;162469.63;5030500;28;20556;-54
2022/04/17 06:59:58;;;;;;;9.02;7.00;;;;;;;7.55;100.00;162538.34;5032304;28;20026;-54
2022/04/17 07:02:23;;;;;;;11.63;7.50;;;;;;;7.94;100.00;162642.06;5029860;28;20084;-54
2022/04/17 07:04:49;;;;;;;7.53;6.78;;;;;;;8.28;100.00;162729.66;5032232;28;20033;-54
2022/04/17 07:07:14;;;;;;;12.98;8.13;;;;;;;8.44;100.00;162771.50;5030865;28;20084;-54
2022/04/17 07:09:39;;;;;;;8.15;6.85;;;;;;;9.06;100.00;162933.28;5031540;28;20037;-51
2022/04/17 07:12:05;;;;;;;11.02;6.72;;;;;;;10.23;100.00;163238.19;5030258;28;20558;-52
2022/04/17 07:14:30;;;;;;;8.88;8.00;;;;;;;11.69;100.00;163621.66;5028764;28;20030;-52
2022/04/17 07:16:55;;;;;;;6.35;5.18;;;;;;;13.20;100.00;164014.94;5027191;28;20041;-52
2022/04/17 07:19:21;;;;;;;6.63;5.57;;;;;;;15.21;90.13;164544.00;5028276;28;20026;-52
2022/04/17 07:21:46;;;;;;;9.13;5.07;;;;;;;16.39;76.09;164852.75;5028321;28;20045;-51
2022/04/17 07:24:11;;;;;;;9.45;5.35;;;;;;;17.53;66.73;165150.88;5028618;28;20021;-52
2022/04/17 07:26:37;;;;;;;6.20;4.35;;;;;;;17.57;60.91;165161.72;5027627;28;20041;-52
2022/04/17 07:29:03;;;;;;;4.50;4.10;;;;;;;18.08;61.55;165297.31;5031542;28;20088;-52
2022/04/17 07:31:29;;;;;;;5.03;3.13;;;;;;;17.61;55.94;165172.53;5029506;28;20037;-52
2022/04/17 07:33:54;;;;;;;6.50;4.00;;;;;;;17.47;52.68;165135.97;5031773;28;20029;-52
2022/04/17 07:36:20;;;;;;;5.97;4.40;;;;;;;17.80;53.69;165222.69;5030412;28;20045;-52
2022/04/17 07:38:46;;;;;;;4.43;3.92;;;;;;;17.50;52.30;165142.72;5030886;28;20464;-52
2022/04/17 07:41:11;;;;;;;4.45;4.00;;;;;;;17.25;51.98;165077.66;5029237;28;20038;-52
2022/04/17 07:43:36;;;;;;;5.82;3.60;;;;;;;17.56;54.30;165159.00;5030945;28;20064;-52
2022/04/17 07:46:02;;;;;;;4.75;3.50;;;;;;;17.54;51.43;165153.56;5029323;28;20040;-52
2022/04/17 07:48:27;;;;;;;6.80;3.55;;;;;;;17.36;50.41;165107.50;5022385;28;20529;-52
2022/04/17 07:50:54;;;;;;;3.70;3.40;;;;;;;17.61;56.91;165172.53;5019072;28;20111;-51
2022/04/17 07:53:19;;;;;;;5.13;4.07;;;;;;;17.50;56.07;165144.06;5021253;28;20405;-52
2022/04/17 07:55:45;;;;;;;4.60;3.58;;;;;;;17.46;50.30;165133.25;5023040;28;20041;-53
2022/04/17 07:58:22;;;;;;;6.57;3.38;;;;;;;17.58;51.96;165165.75;5020402;28;20021;-52
2022/04/17 08:01:39;;;;;;;3.95;3.53;;;;;;;17.39;54.67;165115.59;5019037;28;20045;-52
2022/04/17 08:05:58;;;;;;;4.38;3.50;;;;;;;17.36;51.70;165106.13;5018857;28;20034;-52
2022/04/17 08:08:24;;;;;;;4.80;3.70;;;;;;;17.58;51.73;165164.44;5023616;28;20431;-53
2022/04/17 08:10:49;;;;;;;4.90;4.00;;;;;;;17.49;50.23;165140.03;5021520;28;20063;-52
2022/04/17 08:13:15;;;;;;;4.05;3.40;;;;;;;16.40;49.19;164855.47;5021229;28;20025;-52
2022/04/17 08:15:40;;;;;;;4.78;3.28;;;;;;;16.13;50.06;164783.66;5019332;28;20102;-52
2022/04/17 08:18:06;;;;;;;6.50;3.20;;;;;;;16.73;53.54;164940.78;5022172;28;20041;-52
2022/04/17 08:20:31;;;;;;;4.10;3.70;;;;;;;16.57;55.96;164898.81;5021176;28;20500;-52
2022/04/17 08:22:56;;;;;;;5.30;4.03;;;;;;;17.36;54.56;165107.50;5018740;28;20503;-51
2022/04/17 08:25:22;;;;;;;10.25;3.95;;;;;;;17.69;47.37;165194.22;5021382;28;20069;-51
2022/04/17 08:27:50;;;;;;;8.85;3.03;;;;;;;17.64;48.93;165180.69;5020178;28;20136;-51
2022/04/17 08:30:23;;;;;;;6.10;3.45;;;;;;;17.83;52.50;165229.50;5020242;28;20042;-52
2022/04/17 08:32:49;;;;;;;4.65;3.72;;;;;;;17.83;54.90;165229.50;5024166;28;20076;-52
2022/04/17 08:35:15;;;;;;;5.15;3.65;;;;;;;17.34;51.09;165102.06;5024351;28;20053;-52
2022/04/17 08:37:40;;;;;;;8.10;4.90;;;;;;;17.47;54.86;165135.97;5021282;28;20671;-52
2022/04/17 08:40:06;;;;;;;4.18;3.42;;;;;;;17.17;53.02;165055.97;5023254;28;20033;-51
2022/04/17 08:42:32;;;;;;;4.68;3.70;;;;;;;17.24;50.42;165074.94;5027937;28;20041;-52
2022/04/17 08:44:58;;;;;;;4.38;3.97;;;;;;;17.44;52.16;165129.19;5029063;28;20574;-52
2022/04/17 08:47:24;;;;;;;12.98;3.45;;;;;;;17.77;50.77;165215.91;5032927;28;20094;-52
2022/04/17 08:49:50;;;;;;;4.20;3.60;;;;;;;17.35;48.70;165104.78;5040488;28;20033;-51
2022/04/17 08:52:16;;;;;;;4.53;3.33;;;;;;;17.62;51.21;165173.91;5028543;28;20390;-52
2022/04/17 08:54:43;;;;;;;4.60;3.97;;;;;;;17.84;59.77;165232.16;5022924;28;20028;-53
2022/04/17 08:57:09;;;;;;;5.18;3.50;;;;;;;17.54;54.12;165153.56;5019170;28;20053;-52
2022/04/17 08:59:34;;;;;;;5.07;3.80;;;;;;;17.64;55.14;165180.69;5023244;28;20434;-52
2022/04/17 09:02:07;;;;;;;6.22;4.88;;;;;;;17.15;55.70;165051.94;5027081;28;20049;-52
2022/04/17 09:04:32;;;;;;;4.13;3.72;;;;;;;17.37;53.20;165110.22;5027870;28;20465;-52
2022/04/17 09:06:58;;;;;;;5.25;4.15;;;;;;;17.41;53.97;165121.03;5024958;28;20120;-52
2022/04/17 09:09:23;;;;;;;6.28;4.68;;;;;;;17.26;53.11;165080.38;5029722;28;20034;-51
2022/04/17 09:11:54;;;;;;;3.90;3.50;;;;;;;16.10;52.30;164775.53;5028800;28;20060;-53
2022/04/17 09:14:20;;;;;;;9.57;4.00;;;;;;;16.75;52.98;164947.56;5025491;28;20038;-53
2022/04/17 09:16:49;;;;;;;5.88;3.60;;;;;;;17.32;56.53;165095.31;5020473;28;20044;-53
2022/04/17 09:19:17;;;;;;;8.40;4.38;;;;;;;17.35;54.80;165104.78;5029710;28;20033;-53
2022/04/17 09:21:42;;;;;;;4.38;3.97;;;;;;;17.66;53.72;165186.13;5027321;28;20492;-53
2022/04/17 09:24:20;;;;;;;3.72;3.30;;;;;;;17.87;52.55;165240.31;5026703;28;20056;-52
2022/04/17 09:26:58;;;;;;;6.30;2.97;;;;;;;18.00;48.36;165275.59;5028652;28;20033;-53
2022/04/17 09:29:25;;;;;;;;;;;;;;;17.40;51.15;165118.31;5030006;28;20048;-52
2022/04/17 09:32:06;;;;;;;4.15;3.03;;;;;;;17.51;52.30;165145.44;5022941;28;19925;-53
2022/04/17 09:34:52;;;;;;;6.68;3.40;;;;;;;17.27;50.65;165083.09;5021205;28;20029;-54
2022/04/17 09:37:22;;;;;;;38.35;34.83;;;;;;;17.02;53.19;165016.72;5027186;28;20099;-54
2022/04/17 09:39:49;;;;;;;12.23;11.18;;;;;;;17.31;47.55;165093.97;5029452;28;20045;-55
2022/04/17 09:42:25;;;;;;;5.50;3.55;;;;;;;17.71;48.10;165199.66;5023247;28;20038;-54
2022/04/17 09:44:54;;;;;;;6.25;5.18;;;;;;;17.56;46.68;165159.00;5029531;28;20469;-54
2022/04/17 09:47:20;;;;;;;5.20;3.50;;;;;;;17.81;48.12;165224.06;5026021;28;20037;-54
2022/04/17 09:50:06;;;;;;;6.68;5.30;;;;;;;18.56;46.54;165422.06;5029562;28;20416;-54
2022/04/17 09:52:45;;;;;;;7.22;3.63;;;;;;;18.67;45.57;165450.56;5019756;28;20080;-54
2022/04/17 09:55:11;;;;;;;64.32;50.15;;;;;;;19.21;46.14;165591.69;5027766;28;20036;-55
2022/04/17 09:57:41;;;;;;;21.17;15.25;;;;;;;19.22;44.27;165595.72;5028100;28;20067;-54
2022/04/17 10:00:15;;;;;;;58.58;39.60;;;;;;;19.47;43.52;165660.88;5026056;28;20423;-55
2022/04/17 10:02:42;;;;;;;28.42;19.20;;;;;;;19.68;46.42;165715.13;5026809;28;20079;-53
2022/04/17 10:05:10;;;;;;;6.68;4.30;;;;;;;20.44;42.03;165916.00;5029737;28;20032;-55
2022/04/17 10:07:39;;;;;;;41.20;27.98;;;;;;;20.28;42.37;165875.34;5031614;28;20625;-54
2022/04/17 10:10:05;;;;;;;12.52;6.80;;;;;;;20.65;43.83;165970.34;5033523;28;20037;-54
2022/04/17 10:12:34;;;;;;;17.48;9.27;;;;;;;19.77;44.18;165740.91;5027445;28;20049;-54
2022/04/17 10:15:04;;;;;;;87.90;53.92;;;;;;;20.40;44.23;165905.16;5029973;28;20038;-54
2022/04/17 10:17:31;;;;;;;6.60;4.43;;;;;;;18.54;41.89;165416.63;5026129;28;20567;-55
2022/04/17 10:20:02;;;;;;;28.60;20.33;;;;;;;18.66;45.17;165449.16;5030132;28;20027;-54
2022/04/17 10:22:32;;;;;;;21.20;15.57;;;;;;;19.25;44.76;165602.50;5009095;28;20038;-54
2022/04/17 10:24:59;;;;;;;32.92;23.25;;;;;;;20.09;46.83;165823.72;5011936;28;20017;-54
2022/04/17 10:27:28;;;;;;;45.97;31.42;;;;;;;21.03;42.68;166070.88;5010885;28;20038;-54
2022/04/17 10:30:16;;;;;;;18.65;9.98;;;;;;;20.73;41.67;165992.13;5030092;28;20056;-54
2022/04/17 10:33:09;;;;;;;188.13;102.85;;;;;;;20.66;44.04;165973.06;5018060;28;20042;-55
2022/04/17 10:35:49;;;;;;;141.88;85.57;;;;;;;20.40;45.42;165905.16;5032438;28;20538;-54
2022/04/17 10:38:23;;;;;;;141.52;89.18;;;;;;;20.65;44.36;165970.34;5029951;28;20044;-55
2022/04/17 10:40:54;;;;;;;78.65;50.00;;;;;;;20.32;45.15;165883.44;5031202;28;20083;-54
2022/04/17 10:43:20;;;;;;;24.00;17.42;;;;;;;19.93;42.80;165783.00;5032621;28;20026;-55
2022/04/17 10:46:14;;;;;;;12.52;7.28;;;;;;;20.12;44.09;165831.88;5030475;28;20053;-54
2022/04/17 10:48:50;;;;;;;23.92;15.55;;;;;;;20.35;46.35;165891.59;5029567;28;20025;-54
2022/04/17 10:51:19;;;;;;;11.63;8.10;;;;;;;19.93;41.34;165781.66;5031090;28;20034;-57
2022/04/17 10:54:04;;;;;;;33.28;23.70;;;;;;;19.61;43.15;165698.84;5032184;28;20032;-55
2022/04/17 10:56:34;;;;;;;29.25;20.98;;;;;;;20.03;40.47;165808.78;5029417;28;20048;-53
2022/04/17 10:59:03;;;;;;;9.80;7.65;;;;;;;19.72;42.45;165727.34;5031473;28;20060;-55
2022/04/17 11:02:02;;;;;;;33.45;23.20;;;;;;;19.77;44.31;165739.56;5027296;28;20654;-55
2022/04/17 11:04:29;;;;;;;206.70;128.25;;;;;;;19.91;43.06;165777.63;5019979;28;20437;-54
2022/04/17 11:07:04;;;;;;;140.07;88.13;;;;;;;20.42;40.92;165910.63;5031011;28;20042;-54
2022/04/17 11:09:31;;;;;;;212.13;123.15;;;;;;;20.13;40.23;165834.59;5031877;28;20037;-55
2022/04/17 11:12:06;;;;;;;83.47;45.83;;;;;;;19.49;40.68;165666.25;5030798;28;20501;-55
2022/04/17 11:14:31;;;;;;;274.75;161.25;;;;;;;19.76;39.48;165736.84;5031420;28;20511;-55
2022/04/17 11:16:58;;;;;;;137.45;81.78;;;;;;;19.51;42.67;165671.69;5030350;28;20049;-54
2022/04/17 11:19:32;;;;;;;69.78;45.05;;;;;;;19.26;44.17;165606.56;5031563;28;20622;-54
2022/04/17 11:22:01;;;;;;;88.40;57.03;;;;;;;19.05;42.30;165549.59;5030316;28;20068;-54
2022/04/17 11:24:29;;;;;;;225.57;144.15;;;;;;;18.85;45.24;165498.00;5031425;28;20018;-55
2022/04/17 11:26:54;;;;;;;38.35;28.08;;;;;;;18.96;42.54;165527.88;5030299;28;20049;-54
2022/04/17 11:29:43;;;;;;;13.75;7.97;;;;;;;18.39;43.14;165378.66;5031459;28;20092;-54
2022/04/17 11:32:17;;;;;;;44.88;25.98;;;;;;;17.96;44.46;165264.78;5030519;28;20095;-54
2022/04/17 11:34:53;;;;;;;72.00;50.08;;;;;;;18.27;44.45;165346.16;5030850;28;20113;-54